Time;durP1;ratioP1;P1;durP2;ratioP2;P2;SDS_P1;SDS_P2;PMS_P1;PMS_P2;Temp;Humidity;BMP_temperature;BMP_pressure;BME280_temperature;BME280_humidity;BME280_pressure;Samples;Min_cycle;Max_cycle;Signal;HPM_P1;HPM_P2
2022/09/18 00:02:06;;;;;;;8.90;2.70;;;;;;;5.84;100.00;95412.94;5040232;28;20041;-78
2022/09/18 00:04:31;;;;;;;4.20;1.92;;;;;;;5.93;100.00;95418.53;5008519;28;1047417;-78
2022/09/18 00:06:57;;;;;;;7.85;2.45;;;;;;;5.95;100.00;95414.66;5044131;28;20045;-78
2022/09/18 00:09:22;;;;;;;2.20;1.40;;;;;;;6.03;100.00;95416.09;5050797;28;20037;-78
2022/09/18 00:11:49;;;;;;;4.25;1.80;;;;;;;6.05;100.00;95421.88;5047820;28;20049;-76
2022/09/18 00:14:21;;;;;;;6.05;1.67;;;;;;;6.02;100.00;95419.72;5042136;28;20131;-77
2022/09/18 00:16:47;;;;;;;6.93;1.60;;;;;;;6.03;100.00;95416.91;5045375;28;20037;-77
2022/09/18 00:19:13;;;;;;;6.80;2.05;;;;;;;6.07;100.00;95420.56;5048238;28;20039;-77
2022/09/18 00:21:44;;;;;;;5.75;1.70;;;;;;;5.91;100.00;95418.78;5046785;28;20056;-78
2022/09/18 00:24:10;;;;;;;5.40;1.95;;;;;;;6.04;100.00;95423.69;5056637;28;20036;-77
2022/09/18 00:26:36;;;;;;;7.00;1.77;;;;;;;6.01;100.00;95418.94;5048225;28;20100;-78
2022/09/18 00:29:03;;;;;;;3.60;1.30;;;;;;;5.96;100.00;95437.16;5043427;28;20096;-77
2022/09/18 00:31:32;;;;;;;5.88;1.65;;;;;;;5.94;100.00;95428.75;5047774;28;20041;-76
2022/09/18 00:34:01;;;;;;;6.75;1.75;;;;;;;5.94;100.00;95428.75;5042669;28;20145;-77
2022/09/18 00:36:28;;;;;;;5.20;1.73;;;;;;;5.85;100.00;95424.97;5050483;28;20094;-77
2022/09/18 00:38:55;;;;;;;3.75;1.50;;;;;;;5.94;100.00;95433.97;5050578;28;20062;-77
2022/09/18 00:41:29;;;;;;;4.03;1.55;;;;;;;6.04;100.00;95439.34;5050500;28;20050;-75
2022/09/18 00:44:33;;;;;;;8.95;2.45;;;;;;;6.09;100.00;95437.84;5049479;28;20151;-76
2022/09/18 00:47:14;;;;;;;5.72;1.95;;;;;;;5.93;100.00;95427.16;5047237;28;20108;-77
2022/09/18 00:50:01;;;;;;;7.38;2.28;;;;;;;6.04;100.00;95438.56;5046387;28;20095;-77
2022/09/18 00:52:32;;;;;;;6.60;2.00;;;;;;;6.08;100.00;95444.91;5042156;28;20048;-77
2022/09/18 00:55:08;;;;;;;5.43;1.48;;;;;;;6.07;100.00;95438.88;5037198;28;20042;-78
2022/09/18 00:57:40;;;;;;;3.53;1.60;;;;;;;6.00;100.00;95435.63;5037241;28;20043;-76
2022/09/18 01:00:13;;;;;;;3.97;1.50;;;;;;;6.06;100.00;95446.94;5044473;28;20041;-76
2022/09/18 01:02:45;;;;;;;2.08;1.23;;;;;;;6.07;100.00;95438.88;5044102;28;20167;-76
2022/09/18 01:05:13;;;;;;;4.32;1.27;;;;;;;6.06;100.00;95437.31;5048052;28;20087;-77
2022/09/18 01:08:01;;;;;;;4.82;1.80;;;;;;;5.96;100.00;95439.75;5046580;28;20106;-76
2022/09/18 01:10:53;;;;;;;3.78;1.20;;;;;;;6.00;100.00;95442.69;5041941;28;20054;-76
2022/09/18 01:13:50;;;;;;;3.05;1.50;;;;;;;5.97;100.00;95438.75;5027621;28;20159;-74
2022/09/18 01:16:24;;;;;;;2.38;1.23;;;;;;;6.01;100.00;95439.84;5042254;28;20037;-76
2022/09/18 01:19:01;;;;;;;2.97;1.50;;;;;;;6.05;100.00;95446.16;5048777;28;20042;-75
2022/09/18 01:22:21;;;;;;;2.60;1.00;;;;;;;6.01;100.00;95452.91;5035961;28;20165;-76
2022/09/18 01:24:55;;;;;;;2.03;1.50;;;;;;;5.95;100.00;95446.00;4983020;28;20046;-77
2022/09/18 01:27:34;;;;;;;3.88;1.60;;;;;;;6.03;100.00;95443.03;5035504;28;20415;-77
2022/09/18 01:30:04;;;;;;;3.88;1.35;;;;;;;5.98;100.00;95440.31;5036932;28;20037;-77
2022/09/18 01:32:36;;;;;;;3.10;1.08;;;;;;;5.99;100.00;95441.91;5043237;28;20604;-78
2022/09/18 01:35:09;;;;;;;2.30;1.17;;;;;;;6.00;100.00;95438.25;5047191;28;20049;-77
2022/09/18 01:37:42;;;;;;;2.30;0.80;;;;;;;6.04;100.00;95449.81;5047309;28;20048;-78
2022/09/18 01:40:12;;;;;;;2.38;1.42;;;;;;;6.04;100.00;95439.34;5041538;28;20098;-77
2022/09/18 01:42:39;;;;;;;5.72;1.30;;;;;;;6.00;100.00;95438.25;5047378;28;20090;-76
2022/09/18 01:45:09;;;;;;;2.58;1.50;;;;;;;6.10;100.00;95442.03;5047113;28;20179;-78
2022/09/18 01:47:45;;;;;;;4.32;1.40;;;;;;;6.09;100.00;95435.22;5049603;28;20043;-77
2022/09/18 01:50:13;;;;;;;8.95;1.90;;;;;;;6.09;100.00;95445.69;5047556;28;20033;-77
2022/09/18 01:52:47;;;;;;;2.63;1.58;;;;;;;6.10;100.00;95447.28;5048406;28;20503;-76
2022/09/18 01:55:20;;;;;;;3.80;1.63;;;;;;;6.12;100.00;95445.19;5044374;28;20403;-76
2022/09/18 01:57:51;;;;;;;3.25;1.58;;;;;;;6.17;100.00;95448.66;5050174;28;20041;-77
2022/09/18 02:00:18;;;;;;;4.03;1.50;;;;;;;6.19;100.00;95440.56;5039151;28;20041;-76
2022/09/18 02:02:56;;;;;;;2.45;1.50;;;;;;;6.20;100.00;95442.16;5047091;28;20048;-77
2022/09/18 02:05:44;;;;;;;5.75;1.67;;;;;;;6.12;100.00;95443.38;5049129;28;20049;-76
2022/09/18 02:08:20;;;;;;;2.28;1.30;;;;;;;6.14;100.00;95443.91;5041283;28;20036;-77
2022/09/18 02:11:05;;;;;;;2.45;1.50;;;;;;;6.15;100.00;95439.47;5035822;28;20062;-76
2022/09/18 02:14:04;;;;;;;3.40;1.13;;;;;;;6.19;100.00;95445.81;5035239;28;20065;-75
2022/09/18 02:16:40;;;;;;;6.35;1.63;;;;;;;6.20;100.00;95436.94;5037844;28;20041;-76
2022/09/18 02:19:24;;;;;;;2.70;1.40;;;;;;;6.19;100.00;95428.31;5044080;28;20043;-76
2022/09/18 02:21:52;;;;;;;5.55;1.60;;;;;;;6.24;100.00;95435.44;5043677;28;20045;-76
2022/09/18 02:24:20;;;;;;;3.60;1.80;;;;;;;6.18;100.00;95433.78;5039536;28;20084;-77
2022/09/18 02:26:49;;;;;;;4.22;1.70;;;;;;;6.19;100.00;95425.72;5041054;28;20037;-76
2022/09/18 02:29:16;;;;;;;5.75;1.60;;;;;;;6.20;100.00;95416.03;5046339;28;20044;-76
2022/09/18 02:31:42;;;;;;;5.00;1.70;;;;;;;6.25;100.00;95421.34;5040587;28;20053;-76
2022/09/18 02:34:10;;;;;;;9.38;2.10;;;;;;;6.28;100.00;95427.88;5044207;28;20063;-77
2022/09/18 02:37:08;;;;;;;3.60;1.63;;;;;;;6.21;100.00;95417.63;5038145;28;20041;-78
2022/09/18 02:39:42;;;;;;;3.42;1.80;;;;;;;6.31;100.00;95424.78;5041667;28;20538;-76
2022/09/18 02:42:16;;;;;;;7.53;1.77;;;;;;;6.34;100.00;95427.69;5039036;28;20095;-77
2022/09/18 02:44:50;;;;;;;3.72;1.40;;;;;;;6.40;100.00;95424.09;5045870;28;20033;-76
2022/09/18 02:47:28;;;;;;;;;;;;;;;6.37;100.00;95421.97;5041497;28;20043;-77
2022/09/18 02:49:56;;;;;;;2.78;1.80;;;;;;;6.37;100.00;95421.97;5045396;28;19925;-76
2022/09/18 02:52:31;;;;;;;3.72;1.52;;;;;;;6.38;100.00;95413.09;5037535;28;20280;-76
2022/09/18 02:55:06;;;;;;;2.65;1.55;;;;;;;6.35;100.00;95403.16;5043615;28;20059;-76
2022/09/18 02:57:45;;;;;;;3.65;1.90;;;;;;;6.35;100.00;95418.84;5045942;28;20044;-76
2022/09/18 03:00:15;;;;;;;5.20;1.63;;;;;;;6.43;100.00;95408.97;5043170;28;20071;-76
2022/09/18 03:02:42;;;;;;;6.53;1.92;;;;;;;6.49;100.00;95418.44;5040958;28;20230;-75
2022/09/18 03:05:08;;;;;;;3.22;1.08;;;;;;;6.47;100.00;95420.53;5046341;28;20040;-76
2022/09/18 03:07:34;;;;;;;4.57;1.50;;;;;;;6.50;100.00;95414.81;5045719;28;20437;-76
2022/09/18 03:10:00;;;;;;;7.60;1.90;;;;;;;6.50;100.00;95414.81;5044557;28;20095;-76
2022/09/18 03:12:26;;;;;;;4.22;1.60;;;;;;;6.47;100.00;95410.06;5045342;28;20666;-75
2022/09/18 03:14:51;;;;;;;3.55;1.58;;;;;;;6.55;100.00;95413.03;5040899;28;20049;-77
2022/09/18 03:17:17;;;;;;;5.15;1.60;;;;;;;6.57;100.00;95415.41;5047744;28;20052;-75
2022/09/18 03:19:43;;;;;;;7.53;1.73;;;;;;;6.57;100.00;95415.41;5044724;28;20044;-75
2022/09/18 03:22:09;;;;;;;4.40;1.60;;;;;;;6.57;100.00;95410.19;5036926;28;20048;-75
2022/09/18 03:24:35;;;;;;;7.93;1.92;;;;;;;6.55;100.00;95409.63;5042180;28;20049;-76
2022/09/18 03:27:00;;;;;;;6.93;1.90;;;;;;;6.50;100.00;95414.81;5048539;28;20041;-75
2022/09/18 03:29:26;;;;;;;5.00;1.42;;;;;;;6.60;100.00;95414.91;5042647;28;20045;-75
2022/09/18 03:31:51;;;;;;;2.47;1.25;;;;;;;6.62;100.00;95415.44;5042437;28;20124;-76
2022/09/18 03:34:17;;;;;;;3.08;1.60;;;;;;;6.60;100.00;95412.28;5046100;28;20418;-75
2022/09/18 03:36:42;;;;;;;1.95;1.50;;;;;;;6.66;100.00;95420.97;5039050;28;20044;-75
2022/09/18 03:39:08;;;;;;;11.85;2.75;;;;;;;6.66;100.00;95416.53;5042444;28;20049;-74
2022/09/18 03:41:33;;;;;;;3.83;1.60;;;;;;;6.65;100.00;95422.81;5045768;28;20970;-76
2022/09/18 03:43:58;;;;;;;4.53;1.70;;;;;;;6.68;100.00;95417.09;5045965;28;20473;-75
2022/09/18 03:46:24;;;;;;;5.95;1.60;;;;;;;6.70;100.00;95414.22;5045436;28;20491;-76
2022/09/18 03:48:50;;;;;;;3.85;1.55;;;;;;;6.75;100.00;95417.69;5048256;28;20037;-77
2022/09/18 03:51:17;;;;;;;4.80;1.70;;;;;;;6.68;100.00;95421.50;5039847;28;20072;-76
2022/09/18 03:53:44;;;;;;;4.18;2.15;;;;;;;6.68;100.00;95411.84;5048022;28;20848;-77
2022/09/18 03:56:10;;;;;;;4.03;1.70;;;;;;;6.78;100.00;95420.81;5035776;28;20095;-76
2022/09/18 03:58:36;;;;;;;8.05;1.85;;;;;;;6.74;100.00;95416.09;5048429;28;20094;-76
2022/09/18 04:01:02;;;;;;;4.07;1.48;;;;;;;6.69;100.00;95417.88;5040509;28;20041;-75
2022/09/18 04:03:27;;;;;;;3.17;1.88;;;;;;;6.73;100.00;95418.97;5052292;28;20498;-76
2022/09/18 04:05:53;;;;;;;5.72;2.20;;;;;;;6.74;100.00;95421.31;5043561;28;20125;-76
2022/09/18 04:08:18;;;;;;;7.25;1.60;;;;;;;6.71;100.00;95421.81;5051709;28;20048;-75
2022/09/18 04:10:46;;;;;;;5.57;1.70;;;;;;;6.69;100.00;95413.41;5042111;28;20053;-76
2022/09/18 04:13:11;;;;;;;4.43;1.67;;;;;;;6.73;100.00;95413.72;5045560;28;20041;-75
2022/09/18 04:15:37;;;;;;;4.45;1.67;;;;;;;6.73;100.00;95422.34;5043659;28;20037;-76
2022/09/18 04:18:02;;;;;;;3.05;1.50;;;;;;;6.74;100.00;95415.31;5046578;28;20043;-76
2022/09/18 04:20:28;;;;;;;9.13;1.92;;;;;;;6.73;100.00;95419.75;5046971;28;20124;-75
2022/09/18 04:22:53;;;;;;;4.40;1.55;;;;;;;6.83;100.00;95423.50;5049107;28;20090;-78
2022/09/18 04:25:19;;;;;;;5.05;1.55;;;;;;;6.81;100.00;95425.56;5049814;28;20041;-78
2022/09/18 04:27:47;;;;;;;3.00;1.70;;;;;;;6.85;100.00;95427.47;5048796;28;20037;-78
2022/09/18 04:30:13;;;;;;;7.45;1.80;;;;;;;6.80;100.00;95424.00;5047225;28;20048;-75
2022/09/18 04:32:39;;;;;;;5.97;1.75;;;;;;;6.83;100.00;95423.50;5045305;28;20037;-76
2022/09/18 04:35:05;;;;;;;4.05;1.90;;;;;;;6.84;100.00;95428.50;5050389;28;20586;-75
2022/09/18 04:37:31;;;;;;;4.10;1.80;;;;;;;6.82;100.00;95427.16;5037385;28;20037;-76
2022/09/18 04:39:56;;;;;;;1.95;1.38;;;;;;;6.87;100.00;95435.06;5047780;28;20041;-75
2022/09/18 04:42:21;;;;;;;6.72;1.90;;;;;;;6.83;100.00;95428.72;5048499;28;20055;-77
2022/09/18 04:44:47;;;;;;;3.20;1.65;;;;;;;6.93;100.00;95426.22;5049130;28;20041;-76
2022/09/18 04:47:12;;;;;;;5.78;1.48;;;;;;;6.94;100.00;95431.19;5043237;28;20616;-77
2022/09/18 04:49:38;;;;;;;3.47;1.75;;;;;;;6.90;100.00;95424.09;5048426;28;20047;-77
2022/09/18 04:52:03;;;;;;;4.43;1.75;;;;;;;6.89;100.00;95432.97;5044060;28;20045;-77
2022/09/18 04:54:29;;;;;;;3.90;1.80;;;;;;;6.97;100.00;95432.53;5047525;28;20403;-77
2022/09/18 04:56:55;;;;;;;3.72;1.80;;;;;;;6.91;100.00;95425.66;5041858;28;20049;-78
2022/09/18 04:59:21;;;;;;;3.63;1.50;;;;;;;6.98;100.00;95430.69;5049176;28;20840;-77
2022/09/18 05:01:46;;;;;;;5.97;1.65;;;;;;;6.88;100.00;95426.16;5045414;28;20041;-77
2022/09/18 05:04:12;;;;;;;3.42;1.67;;;;;;;6.97;100.00;95429.91;5046669;28;20047;-77
2022/09/18 05:06:37;;;;;;;3.28;1.63;;;;;;;7.00;100.00;95439.09;5048539;28;20084;-78
2022/09/18 05:09:03;;;;;;;4.95;1.60;;;;;;;6.90;100.00;95439.78;5036358;28;20049;-77
2022/09/18 05:11:28;;;;;;;6.75;1.83;;;;;;;6.96;100.00;95449.25;5040193;28;22128;-77
2022/09/18 05:13:55;;;;;;;2.80;1.60;;;;;;;6.93;100.00;95444.53;5043262;28;20729;-77
2022/09/18 05:16:24;;;;;;;5.85;1.80;;;;;;;6.79;100.00;95444.13;5037133;28;20072;-78
2022/09/18 05:18:51;;;;;;;5.70;2.03;;;;;;;6.87;100.00;95442.91;5050856;28;20045;-77
2022/09/18 05:21:17;;;;;;;8.13;1.95;;;;;;;6.98;100.00;95455.03;5045673;28;20046;-77
2022/09/18 05:23:44;;;;;;;10.38;2.22;;;;;;;6.93;100.00;95460.22;5048376;28;20048;-79
2022/09/18 05:26:10;;;;;;;6.13;1.75;;;;;;;7.02;100.00;95453.50;5037283;28;20495;-78
2022/09/18 05:28:36;;;;;;;11.45;2.35;;;;;;;7.01;100.00;95451.94;5048116;28;20033;-77
2022/09/18 05:31:02;;;;;;;7.93;1.77;;;;;;;7.04;100.00;95456.66;5042407;28;20123;-77
2022/09/18 05:33:28;;;;;;;5.05;1.60;;;;;;;7.05;100.00;95452.22;5050825;28;20044;-77
2022/09/18 05:35:55;;;;;;;6.97;1.88;;;;;;;7.13;100.00;95454.38;5043890;28;20087;-76
2022/09/18 05:38:21;;;;;;;9.85;1.70;;;;;;;7.17;100.00;95449.44;5042747;28;20042;-76
2022/09/18 05:40:49;;;;;;;6.22;1.95;;;;;;;7.09;100.00;95456.69;5041269;28;20048;-77
2022/09/18 05:43:15;;;;;;;2.38;1.23;;;;;;;7.14;100.00;95455.16;5042192;28;20071;-78
2022/09/18 05:45:41;;;;;;;4.43;1.80;;;;;;;7.12;100.00;95458.03;5047708;28;20241;-77
2022/09/18 05:48:08;;;;;;;2.95;1.90;;;;;;;7.10;100.00;95460.91;5049755;28;20482;-78
2022/09/18 05:50:38;;;;;;;5.20;1.63;;;;;;;7.18;100.00;95461.50;5048001;28;20049;-77
2022/09/18 05:53:04;;;;;;;4.78;1.83;;;;;;;7.14;100.00;95460.41;5047975;28;20126;-78
2022/09/18 05:55:30;;;;;;;6.35;2.10;;;;;;;7.13;100.00;95458.84;5045127;28;20068;-78
2022/09/18 05:57:57;;;;;;;5.47;1.85;;;;;;;7.13;100.00;95453.63;5042627;28;20067;-77
2022/09/18 06:00:24;;;;;;;4.00;2.05;;;;;;;7.15;100.00;95456.75;5046491;28;20048;-75
2022/09/18 06:02:59;;;;;;;5.63;1.98;;;;;;;7.22;100.00;95467.81;5042167;28;20137;-76
2022/09/18 06:05:25;;;;;;;5.78;1.80;;;;;;;7.18;100.00;95461.50;5048481;28;20095;-76
2022/09/18 06:07:51;;;;;;;11.05;1.58;;;;;;;7.23;100.00;95466.78;5047359;28;20514;-76
2022/09/18 06:10:18;;;;;;;3.28;1.98;;;;;;;7.26;100.00;95463.66;5045559;28;20044;-76
2022/09/18 06:12:44;;;;;;;4.95;2.30;;;;;;;7.27;100.00;95465.25;5040848;28;20041;-77
2022/09/18 06:15:11;;;;;;;3.83;1.83;;;;;;;7.25;100.00;95462.06;5044317;28;20048;-77
2022/09/18 06:17:38;;;;;;;7.13;2.20;;;;;;;7.27;100.00;95460.78;5046920;28;20041;-76
2022/09/18 06:20:06;;;;;;;4.75;2.30;;;;;;;7.26;100.00;95468.91;5039685;28;20049;-77
2022/09/18 06:22:32;;;;;;;4.85;1.90;;;;;;;7.34;100.00;95471.06;5044614;28;20041;-77
2022/09/18 06:24:57;;;;;;;4.65;2.00;;;;;;;7.29;100.00;95457.94;5045185;28;20078;-77
2022/09/18 06:27:23;;;;;;;5.90;1.75;;;;;;;7.29;100.00;95453.47;5050925;28;20072;-77
2022/09/18 06:29:49;;;;;;;4.53;1.80;;;;;;;7.41;100.00;95466.41;5044829;28;20103;-76
2022/09/18 06:32:14;;;;;;;6.22;1.90;;;;;;;7.38;100.00;95461.66;5042242;28;20041;-78
2022/09/18 06:34:40;;;;;;;3.72;2.05;;;;;;;7.41;100.00;95465.59;5042031;28;20041;-77
2022/09/18 06:37:09;;;;;;;4.97;2.00;;;;;;;7.43;100.00;95468.78;5051252;28;20039;-75
2022/09/18 06:39:34;;;;;;;3.50;1.48;;;;;;;7.40;100.00;95464.81;5071231;28;20033;-76
2022/09/18 06:42:00;;;;;;;6.15;2.00;;;;;;;7.38;100.00;95461.66;5083172;28;20032;-75
2022/09/18 06:44:25;;;;;;;4.10;1.63;;;;;;;7.46;100.00;95463.03;5071327;28;20035;-75
2022/09/18 06:46:51;;;;;;;6.45;1.90;;;;;;;7.46;100.00;95469.06;5075687;28;20041;-75
2022/09/18 06:49:16;;;;;;;5.32;1.48;;;;;;;7.43;100.00;95474.78;5067388;28;20033;-75
2022/09/18 06:51:42;;;;;;;6.20;1.90;;;;;;;7.47;100.00;95480.34;5070906;28;20064;-75
2022/09/18 06:54:07;;;;;;;4.90;1.80;;;;;;;7.40;100.00;95475.28;5077325;28;20044;-75
2022/09/18 06:56:33;;;;;;;3.17;1.70;;;;;;;7.38;100.00;95472.13;5075434;28;20029;-75
2022/09/18 06:58:58;;;;;;;5.95;1.67;;;;;;;7.39;100.00;95468.47;5074220;28;20041;-75
2022/09/18 07:01:23;;;;;;;2.70;1.52;;;;;;;7.41;100.00;95469.03;5043914;28;20033;-76
2022/09/18 07:03:49;;;;;;;4.13;1.67;;;;;;;7.40;100.00;95475.28;5043603;28;20557;-77
2022/09/18 07:06:15;;;;;;;5.15;1.70;;;;;;;7.44;100.00;95476.38;5045458;28;20040;-77
2022/09/18 07:08:40;;;;;;;3.92;1.80;;;;;;;7.40;100.00;95480.53;5045058;28;20037;-77
2022/09/18 07:11:06;;;;;;;4.70;1.90;;;;;;;7.41;100.00;95476.88;5042207;28;20037;-76
2022/09/18 07:13:32;;;;;;;6.15;2.05;;;;;;;7.46;100.00;95479.53;5037217;28;20531;-76
2022/09/18 07:15:58;;;;;;;10.02;2.33;;;;;;;7.45;100.00;95491.03;5041948;28;20658;-76
2022/09/18 07:18:24;;;;;;;8.73;2.20;;;;;;;7.35;100.00;95483.09;5048729;28;20053;-76
2022/09/18 07:20:50;;;;;;;8.13;2.10;;;;;;;7.42;100.00;95483.69;5047735;28;20044;-76
2022/09/18 07:23:15;;;;;;;8.00;2.22;;;;;;;7.36;100.00;95484.69;5039034;28;20503;-77
2022/09/18 07:25:41;;;;;;;4.18;1.80;;;;;;;7.36;100.00;95489.91;5042160;28;20046;-76
2022/09/18 07:28:09;;;;;;;5.38;2.00;;;;;;;7.46;100.00;95484.75;5037608;28;20041;-76
2022/09/18 07:30:36;;;;;;;4.70;2.10;;;;;;;7.49;100.00;95498.41;5042537;28;20041;-76
2022/09/18 07:33:04;;;;;;;5.30;1.67;;;;;;;7.54;100.00;95490.59;5045044;28;20052;-76
2022/09/18 07:35:29;;;;;;;6.72;2.42;;;;;;;7.55;100.00;95492.94;5048865;28;20137;-76
2022/09/18 07:37:59;;;;;;;2.83;1.73;;;;;;;7.60;100.00;95494.81;5041594;28;20112;-75
2022/09/18 07:40:26;;;;;;;11.70;2.53;;;;;;;7.54;100.00;95490.59;5041421;28;20045;-75
2022/09/18 07:42:57;;;;;;;7.97;2.30;;;;;;;7.55;100.00;95497.41;5047487;28;20037;-82
2022/09/18 07:45:23;;;;;;;5.68;2.40;;;;;;;7.59;100.00;95498.50;5049562;28;20040;-74
2022/09/18 07:47:48;;;;;;;9.52;2.70;;;;;;;7.65;100.00;95499.31;5051356;28;20045;-77
2022/09/18 07:50:14;;;;;;;5.28;1.70;;;;;;;7.70;100.00;95500.16;5047034;28;20052;-77
2022/09/18 07:52:52;;;;;;;3.20;1.88;;;;;;;7.70;100.00;95489.69;5043229;28;20049;-78
2022/09/18 07:55:19;;;;;;;6.88;2.17;;;;;;;7.73;100.00;95499.66;5041181;28;20056;-76
2022/09/18 07:57:46;;;;;;;5.53;1.80;;;;;;;7.72;100.00;95492.81;5044663;28;20430;-76
2022/09/18 08:00:12;;;;;;;7.70;1.88;;;;;;;7.72;100.00;95503.28;5048809;28;20345;-75
2022/09/18 08:02:38;;;;;;;3.13;1.92;;;;;;;7.74;100.00;95493.38;5046808;28;20044;-75
2022/09/18 08:05:04;;;;;;;5.05;1.80;;;;;;;7.72;100.00;95498.06;5052011;28;20068;-77
2022/09/18 08:07:29;;;;;;;3.38;1.80;;;;;;;7.79;100.00;95503.09;5048062;28;20126;-75
2022/09/18 08:09:55;;;;;;;6.55;2.00;;;;;;;7.79;100.00;95497.84;5045051;28;20064;-78
2022/09/18 08:12:20;;;;;;;6.13;2.20;;;;;;;7.86;100.00;95495.81;5044539;28;20044;-77
2022/09/18 08:14:46;;;;;;;5.82;2.10;;;;;;;7.87;100.00;95499.22;5049345;28;20044;-75
2022/09/18 08:17:11;;;;;;;5.55;2.38;;;;;;;7.85;100.00;95501.31;5044224;28;20655;-75
2022/09/18 08:19:37;;;;;;;4.35;2.20;;;;;;;7.77;100.00;95505.97;5046659;28;20033;-75
2022/09/18 08:22:04;;;;;;;3.58;2.10;;;;;;;7.83;100.00;95511.22;5045699;28;20494;-75
2022/09/18 08:24:30;;;;;;;3.20;2.00;;;;;;;7.84;100.00;95503.13;5049096;28;20044;-73
2022/09/18 08:27:02;;;;;;;6.63;2.00;;;;;;;7.86;100.00;95502.84;5046866;28;20045;-75
2022/09/18 08:29:28;;;;;;;3.95;2.08;;;;;;;7.85;100.00;95501.31;5042806;28;20498;-76
2022/09/18 08:31:53;;;;;;;1.80;1.30;;;;;;;7.80;100.00;95510.69;5036035;28;20089;-73
2022/09/18 08:34:18;;;;;;;6.57;1.65;;;;;;;7.74;100.00;95510.91;5049858;28;20045;-74
2022/09/18 08:36:44;;;;;;;6.25;2.17;;;;;;;7.77;100.00;95510.41;5043091;28;20037;-75
2022/09/18 08:39:09;;;;;;;6.53;1.70;;;;;;;7.78;100.00;95497.03;5042123;28;20044;-75
2022/09/18 08:42:11;;;;;;;6.05;1.95;;;;;;;7.89;100.00;95503.16;5051156;28;20091;-75
2022/09/18 08:44:47;;;;;;;4.10;1.75;;;;;;;7.93;100.00;95504.25;5047071;28;20196;-75
2022/09/18 08:47:25;;;;;;;3.38;1.77;;;;;;;8.08;100.00;95495.66;5050936;28;20048;-74
2022/09/18 08:50:17;;;;;;;4.18;1.92;;;;;;;8.14;100.00;95494.66;5047397;28;20041;-75
2022/09/18 08:52:47;;;;;;;7.60;2.17;;;;;;;8.09;100.00;95499.88;5045210;28;20466;-74
2022/09/18 08:55:26;;;;;;;5.85;1.58;;;;;;;8.07;100.00;95515.06;5050291;28;20037;-74
2022/09/18 08:57:57;;;;;;;6.70;2.08;;;;;;;8.11;100.00;95513.50;5050735;28;20037;-75
2022/09/18 09:00:30;;;;;;;3.10;1.63;;;;;;;8.17;100.00;95510.94;5050578;28;20041;-74
2022/09/18 09:03:02;;;;;;;4.20;1.90;;;;;;;8.11;100.00;95505.66;5048073;28;20055;-76
2022/09/18 09:05:38;;;;;;;3.58;2.08;;;;;;;8.12;100.00;95515.09;5060800;28;20480;-76
2022/09/18 09:08:45;;;;;;;4.40;2.10;;;;;;;8.24;100.00;95514.13;5049525;28;20543;-75
2022/09/18 09:11:45;;;;;;;11.48;2.17;;;;;;;8.30;100.00;95518.34;5022605;28;20547;-77
2022/09/18 09:14:23;;;;;;;2.38;1.77;;;;;;;8.36;100.00;95516.53;5042892;28;20661;-76
2022/09/18 09:16:54;;;;;;;4.47;2.10;;;;;;;8.29;100.00;95517.56;5040327;28;20172;-77
2022/09/18 09:19:50;;;;;;;6.68;2.30;;;;;;;8.44;100.00;95519.47;5049250;28;20052;-76
2022/09/18 09:22:18;;;;;;;4.03;1.92;;;;;;;8.35;100.00;95518.38;5037774;28;20041;-74
2022/09/18 09:24:44;;;;;;;2.38;1.55;;;;;;;8.48;100.00;95515.31;5054705;28;20473;-74
2022/09/18 09:27:25;;;;;;;5.25;1.90;;;;;;;8.56;100.00;95510.63;5049557;28;20041;-76
2022/09/18 09:30:00;;;;;;;6.88;2.20;;;;;;;8.48;100.00;95504.81;5052063;28;20052;-75
2022/09/18 09:32:39;;;;;;;5.03;1.90;;;;;;;8.48;100.00;95504.81;5038803;28;20521;-75
2022/09/18 09:35:30;;;;;;;5.90;1.70;;;;;;;8.53;100.00;95511.91;5049408;28;20515;-78
2022/09/18 09:38:03;;;;;;;4.93;1.83;;;;;;;8.43;100.00;95496.91;5048744;28;20033;-79
2022/09/18 09:40:52;;;;;;;3.22;1.90;;;;;;;8.40;100.00;95501.88;5042991;28;20123;-75
2022/09/18 09:43:30;;;;;;;5.80;1.85;;;;;;;8.40;100.00;95502.66;5036655;28;20053;-75
2022/09/18 09:46:01;;;;;;;7.30;1.90;;;;;;;8.39;100.00;95497.66;5037912;28;20060;-74
2022/09/18 09:48:43;;;;;;;4.03;1.60;;;;;;;8.45;100.00;95505.34;5034216;28;20041;-76
2022/09/18 09:51:15;;;;;;;3.97;1.70;;;;;;;8.51;100.00;95508.00;5042024;28;20482;-75
2022/09/18 09:53:40;;;;;;;2.40;1.17;;;;;;;8.54;100.00;95497.00;5050084;28;20112;-76
2022/09/18 09:56:24;;;;;;;5.15;1.60;;;;;;;8.61;100.00;95502.78;5049010;28;20481;-77
2022/09/18 09:59:08;;;;;;;3.58;1.80;;;;;;;8.67;100.00;95507.00;5046617;28;20041;-76
2022/09/18 10:01:37;;;;;;;3.55;1.65;;;;;;;8.77;100.00;95509.66;5047431;28;20041;-76
2022/09/18 10:04:26;;;;;;;5.60;1.70;;;;;;;8.89;100.00;95519.13;5049563;28;20056;-76
2022/09/18 10:07:13;;;;;;;5.18;1.35;;;;;;;8.94;100.00;95511.28;5048831;28;20720;-76
2022/09/18 10:10:01;;;;;;;4.63;1.60;;;;;;;8.95;100.00;95512.84;5047018;28;20123;-75
2022/09/18 10:12:36;;;;;;;4.65;1.80;;;;;;;8.94;100.00;95500.78;5041135;28;20041;-74
2022/09/18 10:15:30;;;;;;;11.73;2.40;;;;;;;9.00;100.00;95505.00;5047227;28;20542;-76
2022/09/18 10:18:01;;;;;;;4.30;2.10;;;;;;;8.91;100.00;95509.19;5043178;28;20044;-76
2022/09/18 10:20:29;;;;;;;3.90;1.80;;;;;;;8.92;100.00;95508.13;5060634;28;20079;-78
2022/09/18 10:23:02;;;;;;;8.15;2.70;;;;;;;8.80;100.00;95511.75;5040831;28;20041;-74
2022/09/18 10:25:39;;;;;;;6.55;2.30;;;;;;;8.76;100.00;95510.69;5042292;28;20052;-76
2022/09/18 10:28:05;;;;;;;4.85;2.17;;;;;;;8.83;100.00;95516.53;5050252;28;20033;-76
2022/09/18 10:30:31;;;;;;;4.47;2.10;;;;;;;8.78;100.00;95518.34;5052560;28;20132;-76
2022/09/18 10:32:56;;;;;;;5.57;2.05;;;;;;;8.80;100.00;95514.38;5034831;28;20033;-76
2022/09/18 10:35:36;;;;;;;9.45;1.90;;;;;;;8.88;100.00;95514.94;5045477;28;20045;-75
2022/09/18 10:38:02;;;;;;;4.22;2.28;;;;;;;8.94;100.00;95511.28;5045727;28;20048;-77
2022/09/18 10:40:46;;;;;;;2.08;1.35;;;;;;;8.96;100.00;95514.44;5045712;28;20030;-76
2022/09/18 10:43:17;;;;;;;4.35;2.00;;;;;;;8.99;100.00;95513.91;5035976;28;20049;-76
2022/09/18 10:45:51;;;;;;;3.20;1.58;;;;;;;9.04;100.00;95506.06;5045048;28;20131;-76
2022/09/18 10:48:23;;;;;;;4.55;1.83;;;;;;;9.09;100.00;95513.94;5045042;28;20396;-75
2022/09/18 10:50:58;;;;;;;4.70;2.17;;;;;;;9.12;100.00;95517.88;5048030;28;20046;-76
2022/09/18 10:53:27;;;;;;;;;;;;;;;9.13;100.00;95511.59;5048047;28;20049;-76
2022/09/18 10:55:52;;;;;;;16.83;2.30;;;;;;;9.13;100.00;95515.00;5046707;28;20395;-74
2022/09/18 10:58:27;;;;;;;4.65;2.10;;;;;;;9.16;100.00;95506.59;5040022;28;20098;-75
2022/09/18 11:00:59;;;;;;;3.58;1.38;;;;;;;9.17;100.00;95510.81;5048027;28;20549;-76
2022/09/18 11:03:36;;;;;;;2.85;1.60;;;;;;;9.18;100.00;95501.91;5048782;28;20056;-76
2022/09/18 11:06:05;;;;;;;4.35;2.03;;;;;;;9.24;100.00;95510.56;5047401;28;20048;-76
2022/09/18 11:08:35;;;;;;;4.90;1.70;;;;;;;9.21;100.00;95502.41;5049423;28;20482;-74
2022/09/18 11:11:09;;;;;;;5.82;1.80;;;;;;;9.21;100.00;95505.03;5047827;28;20110;-77
2022/09/18 11:13:50;;;;;;;12.40;2.60;;;;;;;9.22;100.00;95496.13;5064843;28;20041;-75
2022/09/18 11:16:26;;;;;;;9.70;2.20;;;;;;;9.28;100.00;95502.94;5051244;28;20041;-74
2022/09/18 11:19:36;;;;;;;4.72;1.70;;;;;;;9.12;100.00;95508.19;5050684;28;20561;-75
2022/09/18 11:22:05;;;;;;;9.38;2.03;;;;;;;9.11;100.00;95506.59;5034591;28;20061;-76
2022/09/18 11:24:36;;;;;;;2.17;1.55;;;;;;;9.12;100.00;95497.69;5048701;28;20094;-74
2022/09/18 11:27:17;;;;;;;4.82;2.40;;;;;;;9.17;100.00;95494.28;5050012;28;20556;-76
2022/09/18 11:29:43;;;;;;;7.57;2.42;;;;;;;9.23;100.00;95502.97;5042820;28;20033;-75
2022/09/18 11:32:15;;;;;;;5.07;1.90;;;;;;;9.22;100.00;95493.50;5050650;28;20055;-76
2022/09/18 11:34:49;;;;;;;5.18;1.70;;;;;;;9.42;100.00;95501.38;5054043;28;20557;-76
2022/09/18 11:37:43;;;;;;;4.72;1.77;;;;;;;9.52;100.00;95496.16;5048882;28;20034;-74
2022/09/18 11:40:39;;;;;;;4.60;2.20;;;;;;;9.62;100.00;95489.31;5043328;28;20060;-76
2022/09/18 11:43:14;;;;;;;4.70;1.55;;;;;;;9.76;100.00;95495.63;5043471;28;20041;-75
2022/09/18 11:46:00;;;;;;;6.47;2.13;;;;;;;9.69;100.00;95489.84;5051959;28;20033;-74
2022/09/18 11:48:35;;;;;;;3.92;1.63;;;;;;;9.65;100.00;95483.53;5045290;28;20037;-76
2022/09/18 11:51:10;;;;;;;;;;;;;;;9.68;100.00;95477.75;5050097;28;20065;-75
2022/09/18 11:53:42;;;;;;;3.33;1.52;;;;;;;9.60;100.00;95480.91;5055863;28;19921;-75